sensor_id;sensor_type;location;lat;lon;timestamp;P1;durP1;ratioP1;P2;durP2;ratioP2
15677;SDS011;7939;50.814;6.368;2024-01-15T00:00:54;22.83;;;12.90;;
15677;SDS011;7939;50.814;6.368;2024-01-15T00:03:20;21.27;;;11.40;;
15677;SDS011;7939;50.814;6.368;2024-01-15T00:05:48;26.77;;;12.83;;
15677;SDS011;7939;50.814;6.368;2024-01-15T00:08:15;25.70;;;10.83;;
15677;SDS011;7939;50.814;6.368;2024-01-15T00:10:42;26.87;;;12.00;;
15677;SDS011;7939;50.814;6.368;2024-01-15T00:13:08;28.13;;;12.03;;
15677;SDS011;7939;50.814;6.368;2024-01-15T00:15:35;22.53;;;11.13;;
15677;SDS011;7939;50.814;6.368;2024-01-15T00:18:02;26.20;;;11.60;;
15677;SDS011;7939;50.814;6.368;2024-01-15T00:20:29;25.37;;;12.33;;
15677;SDS011;7939;50.814;6.368;2024-01-15T00:22:57;22.03;;;10.97;;
15677;SDS011;7939;50.814;6.368;2024-01-15T00:25:23;27.00;;;12.17;;
15677;SDS011;7939;50.814;6.368;2024-01-15T00:27:50;25.87;;;12.20;;
15677;SDS011;7939;50.814;6.368;2024-01-15T00:30:16;29.30;;;12.23;;
15677;SDS011;7939;50.814;6.368;2024-01-15T00:32:43;27.07;;;13.00;;
15677;SDS011;7939;50.814;6.368;2024-01-15T00:35:10;26.17;;;12.83;;
15677;SDS011;7939;50.814;6.368;2024-01-15T00:37:36;28.53;;;13.67;;
15677;SDS011;7939;50.814;6.368;2024-01-15T00:40:05;27.77;;;12.23;;
15677;SDS011;7939;50.814;6.368;2024-01-15T00:42:33;26.50;;;12.27;;
15677;SDS011;7939;50.814;6.368;2024-01-15T00:45:00;32.70;;;12.23;;
15677;SDS011;7939;50.814;6.368;2024-01-15T00:47:27;22.80;;;11.07;;
15677;SDS011;7939;50.814;6.368;2024-01-15T00:49:53;26.60;;;11.80;;
15677;SDS011;7939;50.814;6.368;2024-01-15T00:52:20;28.60;;;13.03;;
15677;SDS011;7939;50.814;6.368;2024-01-15T00:54:46;25.87;;;12.50;;
15677;SDS011;7939;50.814;6.368;2024-01-15T00:57:14;23.53;;;13.23;;
15677;SDS011;7939;50.814;6.368;2024-01-15T00:59:41;25.07;;;11.47;;
15677;SDS011;7939;50.814;6.368;2024-01-15T01:02:08;23.87;;;12.80;;
15677;SDS011;7939;50.814;6.368;2024-01-15T01:04:34;26.13;;;12.23;;
15677;SDS011;7939;50.814;6.368;2024-01-15T01:07:01;27.17;;;12.33;;
15677;SDS011;7939;50.814;6.368;2024-01-15T01:09:28;25.80;;;11.40;;
15677;SDS011;7939;50.814;6.368;2024-01-15T01:11:55;31.47;;;13.63;;
15677;SDS011;7939;50.814;6.368;2024-01-15T01:14:23;24.67;;;12.53;;
15677;SDS011;7939;50.814;6.368;2024-01-15T01:16:50;27.23;;;12.73;;
15677;SDS011;7939;50.814;6.368;2024-01-15T01:19:17;30.50;;;12.93;;
15677;SDS011;7939;50.814;6.368;2024-01-15T01:21:43;28.60;;;12.93;;
15677;SDS011;7939;50.814;6.368;2024-01-15T01:24:10;26.13;;;11.70;;
15677;SDS011;7939;50.814;6.368;2024-01-15T01:26:37;26.37;;;12.37;;
15677;SDS011;7939;50.814;6.368;2024-01-15T01:29:03;24.70;;;12.70;;
15677;SDS011;7939;50.814;6.368;2024-01-15T01:31:31;31.30;;;14.17;;
15677;SDS011;7939;50.814;6.368;2024-01-15T01:33:58;28.00;;;12.63;;
15677;SDS011;7939;50.814;6.368;2024-01-15T01:36:25;25.73;;;12.97;;
15677;SDS011;7939;50.814;6.368;2024-01-15T01:38:51;22.20;;;12.03;;
15677;SDS011;7939;50.814;6.368;2024-01-15T01:41:18;28.70;;;13.93;;
15677;SDS011;7939;50.814;6.368;2024-01-15T01:43:45;29.70;;;12.37;;
15677;SDS011;7939;50.814;6.368;2024-01-15T01:46:10;23.73;;;11.40;;
15677;SDS011;7939;50.814;6.368;2024-01-15T01:48:39;28.30;;;12.87;;
15677;SDS011;7939;50.814;6.368;2024-01-15T01:51:06;26.67;;;12.83;;
15677;SDS011;7939;50.814;6.368;2024-01-15T01:53:34;25.27;;;12.77;;
15677;SDS011;7939;50.814;6.368;2024-01-15T01:56:01;25.80;;;11.83;;
15677;SDS011;7939;50.814;6.368;2024-01-15T01:58:29;27.33;;;13.73;;
15677;SDS011;7939;50.814;6.368;2024-01-15T02:00:56;30.07;;;14.17;;
15677;SDS011;7939;50.814;6.368;2024-01-15T02:03:24;23.93;;;12.77;;
15677;SDS011;7939;50.814;6.368;2024-01-15T02:05:52;32.00;;;14.80;;
15677;SDS011;7939;50.814;6.368;2024-01-15T02:08:19;22.87;;;11.73;;
15677;SDS011;7939;50.814;6.368;2024-01-15T02:10:46;24.30;;;12.07;;
15677;SDS011;7939;50.814;6.368;2024-01-15T02:13:13;29.90;;;13.90;;
15677;SDS011;7939;50.814;6.368;2024-01-15T02:15:40;30.03;;;14.30;;
15677;SDS011;7939;50.814;6.368;2024-01-15T02:18:06;25.00;;;12.97;;
15677;SDS011;7939;50.814;6.368;2024-01-15T02:20:33;27.83;;;13.50;;
15677;SDS011;7939;50.814;6.368;2024-01-15T02:23:03;22.47;;;11.40;;
15677;SDS011;7939;50.814;6.368;2024-01-15T02:25:33;25.90;;;13.47;;
15677;SDS011;7939;50.814;6.368;2024-01-15T02:28:01;23.03;;;13.47;;
15677;SDS011;7939;50.814;6.368;2024-01-15T02:30:28;27.53;;;13.00;;
15677;SDS011;7939;50.814;6.368;2024-01-15T02:32:56;26.17;;;13.43;;
15677;SDS011;7939;50.814;6.368;2024-01-15T02:35:22;26.53;;;14.03;;
15677;SDS011;7939;50.814;6.368;2024-01-15T02:37:49;25.73;;;14.00;;
15677;SDS011;7939;50.814;6.368;2024-01-15T02:40:17;25.23;;;13.50;;
15677;SDS011;7939;50.814;6.368;2024-01-15T02:42:44;26.50;;;13.07;;
15677;SDS011;7939;50.814;6.368;2024-01-15T02:45:10;28.17;;;14.77;;
15677;SDS011;7939;50.814;6.368;2024-01-15T02:47:37;22.90;;;12.40;;
15677;SDS011;7939;50.814;6.368;2024-01-15T02:50:04;27.27;;;14.90;;
15677;SDS011;7939;50.814;6.368;2024-01-15T02:52:31;29.43;;;13.83;;
15677;SDS011;7939;50.814;6.368;2024-01-15T02:54:58;28.43;;;14.83;;
15677;SDS011;7939;50.814;6.368;2024-01-15T02:57:26;22.17;;;13.17;;
15677;SDS011;7939;50.814;6.368;2024-01-15T02:59:53;27.43;;;13.00;;
15677;SDS011;7939;50.814;6.368;2024-01-15T03:02:19;25.77;;;13.37;;
15677;SDS011;7939;50.814;6.368;2024-01-15T03:04:46;27.35;;;14.30;;
15677;SDS011;7939;50.814;6.368;2024-01-15T03:07:13;30.80;;;14.53;;
15677;SDS011;7939;50.814;6.368;2024-01-15T03:09:40;30.40;;;14.30;;
15677;SDS011;7939;50.814;6.368;2024-01-15T03:12:07;23.37;;;12.37;;
15677;SDS011;7939;50.814;6.368;2024-01-15T03:14:35;25.63;;;14.17;;
15677;SDS011;7939;50.814;6.368;2024-01-15T03:17:02;25.00;;;14.70;;
15677;SDS011;7939;50.814;6.368;2024-01-15T03:19:28;26.90;;;13.73;;
15677;SDS011;7939;50.814;6.368;2024-01-15T03:21:55;26.13;;;12.40;;
15677;SDS011;7939;50.814;6.368;2024-01-15T03:24:22;29.57;;;14.43;;
15677;SDS011;7939;50.814;6.368;2024-01-15T03:26:49;25.30;;;13.93;;
15677;SDS011;7939;50.814;6.368;2024-01-15T03:29:15;27.57;;;13.30;;
15677;SDS011;7939;50.814;6.368;2024-01-15T03:31:43;31.90;;;13.60;;
15677;SDS011;7939;50.814;6.368;2024-01-15T03:34:10;30.87;;;13.90;;
15677;SDS011;7939;50.814;6.368;2024-01-15T03:36:37;22.03;;;11.70;;
15677;SDS011;7939;50.814;6.368;2024-01-15T03:39:04;25.20;;;12.80;;
15677;SDS011;7939;50.814;6.368;2024-01-15T03:41:30;21.90;;;12.17;;
15677;SDS011;7939;50.814;6.368;2024-01-15T03:43:57;23.63;;;12.93;;
15677;SDS011;7939;50.814;6.368;2024-01-15T03:46:24;22.63;;;12.97;;
15677;SDS011;7939;50.814;6.368;2024-01-15T03:48:52;22.17;;;11.70;;
15677;SDS011;7939;50.814;6.368;2024-01-15T03:51:19;22.33;;;11.93;;
15677;SDS011;7939;50.814;6.368;2024-01-15T03:53:46;21.03;;;11.80;;
15677;SDS011;7939;50.814;6.368;2024-01-15T03:56:13;20.03;;;10.60;;
15677;SDS011;7939;50.814;6.368;2024-01-15T03:58:40;20.87;;;11.33;;
15677;SDS011;7939;50.814;6.368;2024-01-15T04:01:07;24.47;;;12.27;;
15677;SDS011;7939;50.814;6.368;2024-01-15T04:03:35;20.20;;;11.30;;
15677;SDS011;7939;50.814;6.368;2024-01-15T04:06:03;18.67;;;10.40;;
15677;SDS011;7939;50.814;6.368;2024-01-15T04:08:30;22.97;;;11.60;;
15677;SDS011;7939;50.814;6.368;2024-01-15T04:10:57;21.20;;;10.67;;
15677;SDS011;7939;50.814;6.368;2024-01-15T04:13:23;18.67;;;10.80;;
15677;SDS011;7939;50.814;6.368;2024-01-15T04:15:50;18.07;;;10.77;;
15677;SDS011;7939;50.814;6.368;2024-01-15T04:18:17;19.57;;;10.97;;
15677;SDS011;7939;50.814;6.368;2024-01-15T04:20:43;19.03;;;9.93;;
15677;SDS011;7939;50.814;6.368;2024-01-15T04:23:11;19.13;;;10.73;;
15677;SDS011;7939;50.814;6.368;2024-01-15T04:25:38;21.40;;;11.60;;
15677;SDS011;7939;50.814;6.368;2024-01-15T04:28:07;19.27;;;11.20;;
15677;SDS011;7939;50.814;6.368;2024-01-15T04:30:34;19.23;;;10.63;;
15677;SDS011;7939;50.814;6.368;2024-01-15T04:33:01;23.03;;;11.53;;
15677;SDS011;7939;50.814;6.368;2024-01-15T04:35:28;18.37;;;10.90;;
15677;SDS011;7939;50.814;6.368;2024-01-15T04:37:55;19.20;;;11.17;;
15677;SDS011;7939;50.814;6.368;2024-01-15T04:40:23;17.10;;;10.13;;
15677;SDS011;7939;50.814;6.368;2024-01-15T04:42:52;25.40;;;10.77;;
15677;SDS011;7939;50.814;6.368;2024-01-15T04:45:19;17.40;;;9.57;;
15677;SDS011;7939;50.814;6.368;2024-01-15T04:47:48;17.13;;;9.37;;
15677;SDS011;7939;50.814;6.368;2024-01-15T04:50:15;20.63;;;10.77;;
15677;SDS011;7939;50.814;6.368;2024-01-15T04:52:41;18.77;;;10.57;;
15677;SDS011;7939;50.814;6.368;2024-01-15T04:55:08;16.03;;;9.87;;
15677;SDS011;7939;50.814;6.368;2024-01-15T04:57:36;20.57;;;12.67;;
15677;SDS011;7939;50.814;6.368;2024-01-15T05:00:03;19.50;;;11.83;;
15677;SDS011;7939;50.814;6.368;2024-01-15T05:02:31;20.03;;;10.60;;
15677;SDS011;7939;50.814;6.368;2024-01-15T05:04:57;19.17;;;10.60;;
15677;SDS011;7939;50.814;6.368;2024-01-15T05:07:24;24.65;;;14.65;;
15677;SDS011;7939;50.814;6.368;2024-01-15T05:09:51;20.80;;;11.83;;
15677;SDS011;7939;50.814;6.368;2024-01-15T05:12:17;21.57;;;11.77;;
15677;SDS011;7939;50.814;6.368;2024-01-15T05:14:45;19.20;;;10.23;;
15677;SDS011;7939;50.814;6.368;2024-01-15T05:17:12;26.10;;;15.65;;
15677;SDS011;7939;50.814;6.368;2024-01-15T05:19:39;22.55;;;13.55;;
15677;SDS011;7939;50.814;6.368;2024-01-15T05:22:05;24.43;;;15.83;;
15677;SDS011;7939;50.814;6.368;2024-01-15T05:24:32;27.67;;;16.77;;
15677;SDS011;7939;50.814;6.368;2024-01-15T05:26:59;22.38;;;12.10;;
15677;SDS011;7939;50.814;6.368;2024-01-15T05:29:26;24.20;;;12.50;;
15677;SDS011;7939;50.814;6.368;2024-01-15T05:31:54;17.27;;;10.93;;
15677;SDS011;7939;50.814;6.368;2024-01-15T05:34:21;18.35;;;11.38;;
15677;SDS011;7939;50.814;6.368;2024-01-15T05:36:47;20.35;;;11.38;;
15677;SDS011;7939;50.814;6.368;2024-01-15T05:39:14;20.40;;;10.85;;
15677;SDS011;7939;50.814;6.368;2024-01-15T05:41:41;23.00;;;12.40;;
15677;SDS011;7939;50.814;6.368;2024-01-15T05:44:08;17.48;;;10.98;;
15677;SDS011;7939;50.814;6.368;2024-01-15T05:46:35;24.75;;;13.60;;
15677;SDS011;7939;50.814;6.368;2024-01-15T05:49:03;20.08;;;11.00;;
15677;SDS011;7939;50.814;6.368;2024-01-15T05:51:29;20.35;;;11.65;;
15677;SDS011;7939;50.814;6.368;2024-01-15T05:53:56;19.88;;;11.52;;
15677;SDS011;7939;50.814;6.368;2024-01-15T05:56:23;19.70;;;11.47;;
15677;SDS011;7939;50.814;6.368;2024-01-15T05:58:51;18.70;;;10.60;;
15677;SDS011;7939;50.814;6.368;2024-01-15T06:01:18;17.57;;;11.30;;
15677;SDS011;7939;50.814;6.368;2024-01-15T06:03:44;15.07;;;9.90;;
15677;SDS011;7939;50.814;6.368;2024-01-15T06:06:12;17.90;;;11.50;;
15677;SDS011;7939;50.814;6.368;2024-01-15T06:08:39;19.60;;;9.80;;
15677;SDS011;7939;50.814;6.368;2024-01-15T06:11:06;19.13;;;10.70;;
15677;SDS011;7939;50.814;6.368;2024-01-15T06:13:33;20.50;;;11.13;;
15677;SDS011;7939;50.814;6.368;2024-01-15T06:15:59;15.68;;;9.73;;
15677;SDS011;7939;50.814;6.368;2024-01-15T06:18:26;20.58;;;11.00;;
15677;SDS011;7939;50.814;6.368;2024-01-15T06:20:53;19.67;;;10.77;;
15677;SDS011;7939;50.814;6.368;2024-01-15T06:23:21;16.53;;;11.27;;
15677;SDS011;7939;50.814;6.368;2024-01-15T06:25:47;19.87;;;11.10;;
15677;SDS011;7939;50.814;6.368;2024-01-15T06:28:14;19.17;;;10.60;;
15677;SDS011;7939;50.814;6.368;2024-01-15T06:30:40;18.87;;;10.87;;
15677;SDS011;7939;50.814;6.368;2024-01-15T06:33:07;18.47;;;11.33;;
15677;SDS011;7939;50.814;6.368;2024-01-15T06:35:34;17.80;;;10.82;;
15677;SDS011;7939;50.814;6.368;2024-01-15T06:38:01;21.40;;;11.57;;
15677;SDS011;7939;50.814;6.368;2024-01-15T06:40:29;16.57;;;10.40;;
15677;SDS011;7939;50.814;6.368;2024-01-15T06:42:55;18.10;;;11.05;;
15677;SDS011;7939;50.814;6.368;2024-01-15T06:45:22;19.60;;;11.98;;
15677;SDS011;7939;50.814;6.368;2024-01-15T06:47:49;18.77;;;11.67;;
15677;SDS011;7939;50.814;6.368;2024-01-15T06:50:15;19.02;;;11.63;;
15677;SDS011;7939;50.814;6.368;2024-01-15T06:52:42;18.00;;;10.60;;
15677;SDS011;7939;50.814;6.368;2024-01-15T06:55:09;17.10;;;10.97;;
15677;SDS011;7939;50.814;6.368;2024-01-15T06:57:37;22.33;;;11.17;;
15677;SDS011;7939;50.814;6.368;2024-01-15T07:00:04;20.10;;;12.53;;
15677;SDS011;7939;50.814;6.368;2024-01-15T07:02:33;22.43;;;11.70;;
15677;SDS011;7939;50.814;6.368;2024-01-15T07:05:00;18.60;;;11.67;;
15677;SDS011;7939;50.814;6.368;2024-01-15T07:07:26;15.70;;;10.80;;
15677;SDS011;7939;50.814;6.368;2024-01-15T07:09:55;18.30;;;10.30;;
15677;SDS011;7939;50.814;6.368;2024-01-15T07:12:21;17.40;;;11.17;;
15677;SDS011;7939;50.814;6.368;2024-01-15T07:14:49;21.23;;;11.57;;
15677;SDS011;7939;50.814;6.368;2024-01-15T07:17:16;21.93;;;11.77;;
15677;SDS011;7939;50.814;6.368;2024-01-15T07:19:43;17.92;;;11.40;;
15677;SDS011;7939;50.814;6.368;2024-01-15T07:22:09;20.77;;;13.03;;
15677;SDS011;7939;50.814;6.368;2024-01-15T07:24:36;24.77;;;13.53;;
15677;SDS011;7939;50.814;6.368;2024-01-15T07:27:03;23.73;;;13.73;;
15677;SDS011;7939;50.814;6.368;2024-01-15T07:29:30;22.07;;;13.17;;
15677;SDS011;7939;50.814;6.368;2024-01-15T07:31:59;26.80;;;13.03;;
15677;SDS011;7939;50.814;6.368;2024-01-15T07:34:26;24.67;;;12.97;;
15677;SDS011;7939;50.814;6.368;2024-01-15T07:36:53;25.33;;;13.80;;
15677;SDS011;7939;50.814;6.368;2024-01-15T07:39:20;27.53;;;14.63;;
15677;SDS011;7939;50.814;6.368;2024-01-15T07:41:47;28.50;;;13.53;;
15677;SDS011;7939;50.814;6.368;2024-01-15T07:44:14;28.27;;;13.20;;
15677;SDS011;7939;50.814;6.368;2024-01-15T07:46:43;26.43;;;13.63;;
15677;SDS011;7939;50.814;6.368;2024-01-15T07:49:11;26.10;;;13.53;;
15677;SDS011;7939;50.814;6.368;2024-01-15T07:51:38;22.47;;;13.13;;
15677;SDS011;7939;50.814;6.368;2024-01-15T07:54:06;21.97;;;12.63;;
15677;SDS011;7939;50.814;6.368;2024-01-15T07:56:33;28.87;;;13.17;;
15677;SDS011;7939;50.814;6.368;2024-01-15T07:58:59;21.07;;;12.30;;
15677;SDS011;7939;50.814;6.368;2024-01-15T08:01:26;25.93;;;13.10;;
15677;SDS011;7939;50.814;6.368;2024-01-15T08:03:53;27.43;;;12.87;;
15677;SDS011;7939;50.814;6.368;2024-01-15T08:06:21;25.38;;;11.23;;
15677;SDS011;7939;50.814;6.368;2024-01-15T08:08:48;19.50;;;11.33;;
15677;SDS011;7939;50.814;6.368;2024-01-15T08:11:15;18.08;;;10.32;;
15677;SDS011;7939;50.814;6.368;2024-01-15T08:13:41;21.15;;;10.93;;
15677;SDS011;7939;50.814;6.368;2024-01-15T08:16:08;18.07;;;10.67;;
15677;SDS011;7939;50.814;6.368;2024-01-15T08:18:35;18.03;;;10.80;;
15677;SDS011;7939;50.814;6.368;2024-01-15T08:21:02;14.55;;;8.98;;
15677;SDS011;7939;50.814;6.368;2024-01-15T08:23:30;15.67;;;9.03;;
15677;SDS011;7939;50.814;6.368;2024-01-15T08:25:57;15.03;;;9.57;;
15677;SDS011;7939;50.814;6.368;2024-01-15T08:28:24;18.45;;;10.18;;
15677;SDS011;7939;50.814;6.368;2024-01-15T08:30:50;20.52;;;12.52;;
15677;SDS011;7939;50.814;6.368;2024-01-15T08:33:17;12.93;;;9.05;;
15677;SDS011;7939;50.814;6.368;2024-01-15T08:35:44;9.05;;;5.75;;
15677;SDS011;7939;50.814;6.368;2024-01-15T08:38:10;13.60;;;9.30;;
15677;SDS011;7939;50.814;6.368;2024-01-15T08:40:38;17.38;;;11.13;;
15677;SDS011;7939;50.814;6.368;2024-01-15T08:43:05;12.18;;;8.23;;
15677;SDS011;7939;50.814;6.368;2024-01-15T08:45:32;11.82;;;8.02;;
15677;SDS011;7939;50.814;6.368;2024-01-15T08:47:59;12.83;;;9.00;;
15677;SDS011;7939;50.814;6.368;2024-01-15T08:50:26;12.57;;;7.57;;
15677;SDS011;7939;50.814;6.368;2024-01-15T08:52:53;12.00;;;7.60;;
15677;SDS011;7939;50.814;6.368;2024-01-15T08:55:19;13.53;;;8.17;;
15677;SDS011;7939;50.814;6.368;2024-01-15T08:57:49;8.63;;;6.53;;
15677;SDS011;7939;50.814;6.368;2024-01-15T09:00:16;10.13;;;7.47;;
15677;SDS011;7939;50.814;6.368;2024-01-15T09:02:43;12.37;;;6.70;;
15677;SDS011;7939;50.814;6.368;2024-01-15T09:05:10;9.27;;;6.57;;
15677;SDS011;7939;50.814;6.368;2024-01-15T09:07:37;11.10;;;6.57;;
15677;SDS011;7939;50.814;6.368;2024-01-15T09:10:04;10.53;;;6.83;;
15677;SDS011;7939;50.814;6.368;2024-01-15T09:12:31;10.93;;;6.47;;
15677;SDS011;7939;50.814;6.368;2024-01-15T09:14:59;12.80;;;7.13;;
15677;SDS011;7939;50.814;6.368;2024-01-15T09:17:29;9.23;;;6.37;;
15677;SDS011;7939;50.814;6.368;2024-01-15T09:19:56;9.47;;;5.60;;
15677;SDS011;7939;50.814;6.368;2024-01-15T09:22:22;7.73;;;6.20;;
15677;SDS011;7939;50.814;6.368;2024-01-15T09:24:49;9.60;;;6.27;;
15677;SDS011;7939;50.814;6.368;2024-01-15T09:27:16;12.37;;;6.70;;
15677;SDS011;7939;50.814;6.368;2024-01-15T09:29:42;9.37;;;6.27;;
15677;SDS011;7939;50.814;6.368;2024-01-15T09:32:12;12.57;;;7.53;;
15677;SDS011;7939;50.814;6.368;2024-01-15T09:34:39;9.17;;;6.90;;
15677;SDS011;7939;50.814;6.368;2024-01-15T09:37:06;11.77;;;6.50;;
15677;SDS011;7939;50.814;6.368;2024-01-15T09:39:33;9.33;;;6.73;;
15677;SDS011;7939;50.814;6.368;2024-01-15T09:41:59;9.03;;;6.80;;
15677;SDS011;7939;50.814;6.368;2024-01-15T09:44:27;10.27;;;6.87;;
15677;SDS011;7939;50.814;6.368;2024-01-15T09:46:55;9.50;;;6.33;;
15677;SDS011;7939;50.814;6.368;2024-01-15T09:49:23;7.97;;;5.97;;
15677;SDS011;7939;50.814;6.368;2024-01-15T09:51:50;8.57;;;5.67;;
15677;SDS011;7939;50.814;6.368;2024-01-15T09:54:17;10.70;;;6.03;;
15677;SDS011;7939;50.814;6.368;2024-01-15T09:56:45;7.87;;;6.27;;
15677;SDS011;7939;50.814;6.368;2024-01-15T09:59:13;9.70;;;6.23;;
15677;SDS011;7939;50.814;6.368;2024-01-15T10:01:41;8.83;;;6.67;;
15677;SDS011;7939;50.814;6.368;2024-01-15T10:04:10;7.50;;;5.63;;
15677;SDS011;7939;50.814;6.368;2024-01-15T10:06:39;8.00;;;6.40;;
15677;SDS011;7939;50.814;6.368;2024-01-15T10:09:11;11.43;;;9.00;;
15677;SDS011;7939;50.814;6.368;2024-01-15T10:11:39;10.80;;;8.83;;
15677;SDS011;7939;50.814;6.368;2024-01-15T10:14:07;11.87;;;7.90;;
15677;SDS011;7939;50.814;6.368;2024-01-15T10:16:36;15.40;;;11.30;;
15677;SDS011;7939;50.814;6.368;2024-01-15T10:19:03;12.23;;;8.73;;
15677;SDS011;7939;50.814;6.368;2024-01-15T10:21:31;18.17;;;10.20;;
15677;SDS011;7939;50.814;6.368;2024-01-15T10:24:01;21.70;;;12.37;;
15677;SDS011;7939;50.814;6.368;2024-01-15T10:26:29;22.43;;;12.37;;
15677;SDS011;7939;50.814;6.368;2024-01-15T10:28:56;17.27;;;10.50;;
15677;SDS011;7939;50.814;6.368;2024-01-15T10:31:25;15.20;;;9.37;;
15677;SDS011;7939;50.814;6.368;2024-01-15T10:33:52;12.27;;;7.90;;
15677;SDS011;7939;50.814;6.368;2024-01-15T10:36:19;11.07;;;7.33;;
15677;SDS011;7939;50.814;6.368;2024-01-15T10:38:46;13.20;;;7.80;;
15677;SDS011;7939;50.814;6.368;2024-01-15T10:41:14;9.43;;;7.57;;
15677;SDS011;7939;50.814;6.368;2024-01-15T10:43:41;11.23;;;8.07;;
15677;SDS011;7939;50.814;6.368;2024-01-15T10:46:07;12.02;;;7.40;;
15677;SDS011;7939;50.814;6.368;2024-01-15T10:48:35;12.00;;;7.30;;
15677;SDS011;7939;50.814;6.368;2024-01-15T10:51:02;8.57;;;6.33;;
15677;SDS011;7939;50.814;6.368;2024-01-15T10:53:35;10.00;;;7.00;;
15677;SDS011;7939;50.814;6.368;2024-01-15T10:56:05;9.50;;;7.72;;
15677;SDS011;7939;50.814;6.368;2024-01-15T10:58:34;10.00;;;6.80;;
15677;SDS011;7939;50.814;6.368;2024-01-15T11:01:03;10.97;;;6.83;;
15677;SDS011;7939;50.814;6.368;2024-01-15T11:03:31;9.90;;;6.50;;
15677;SDS011;7939;50.814;6.368;2024-01-15T11:05:58;9.90;;;6.60;;
15677;SDS011;7939;50.814;6.368;2024-01-15T11:08:26;9.53;;;6.50;;
15677;SDS011;7939;50.814;6.368;2024-01-15T11:10:53;10.33;;;5.90;;
15677;SDS011;7939;50.814;6.368;2024-01-15T11:13:20;11.03;;;6.23;;
15677;SDS011;7939;50.814;6.368;2024-01-15T11:15:55;11.37;;;6.80;;
15677;SDS011;7939;50.814;6.368;2024-01-15T11:18:23;10.50;;;7.38;;
15677;SDS011;7939;50.814;6.368;2024-01-15T11:23:48;9.82;;;5.63;;
15677;SDS011;7939;50.814;6.368;2024-01-15T11:26:32;7.95;;;5.40;;
15677;SDS011;7939;50.814;6.368;2024-01-15T11:29:02;12.02;;;7.72;;
15677;SDS011;7939;50.814;6.368;2024-01-15T11:37:21;9.37;;;5.10;;
15677;SDS011;7939;50.814;6.368;2024-01-15T11:39:50;10.20;;;5.73;;
15677;SDS011;7939;50.814;6.368;2024-01-15T11:42:19;13.60;;;6.35;;
15677;SDS011;7939;50.814;6.368;2024-01-15T11:44:46;11.67;;;6.40;;
15677;SDS011;7939;50.814;6.368;2024-01-15T11:47:14;12.30;;;6.10;;
15677;SDS011;7939;50.814;6.368;2024-01-15T11:49:58;12.23;;;5.37;;
15677;SDS011;7939;50.814;6.368;2024-01-15T11:52:26;7.70;;;5.10;;
15677;SDS011;7939;50.814;6.368;2024-01-15T11:54:55;8.97;;;4.33;;
15677;SDS011;7939;50.814;6.368;2024-01-15T11:57:40;9.00;;;4.82;;
15677;SDS011;7939;50.814;6.368;2024-01-15T12:00:10;8.87;;;4.97;;
15677;SDS011;7939;50.814;6.368;2024-01-15T12:02:40;7.00;;;4.60;;
15677;SDS011;7939;50.814;6.368;2024-01-15T12:05:08;8.37;;;4.73;;
15677;SDS011;7939;50.814;6.368;2024-01-15T12:07:37;8.87;;;4.87;;
15677;SDS011;7939;50.814;6.368;2024-01-15T12:10:06;6.10;;;4.43;;
15677;SDS011;7939;50.814;6.368;2024-01-15T12:12:37;11.10;;;4.43;;
15677;SDS011;7939;50.814;6.368;2024-01-15T12:15:12;7.60;;;4.57;;
15677;SDS011;7939;50.814;6.368;2024-01-15T12:17:41;5.83;;;4.10;;
15677;SDS011;7939;50.814;6.368;2024-01-15T12:20:08;6.30;;;4.73;;
15677;SDS011;7939;50.814;6.368;2024-01-15T12:22:37;6.83;;;4.40;;
15677;SDS011;7939;50.814;6.368;2024-01-15T12:25:04;11.17;;;5.03;;
15677;SDS011;7939;50.814;6.368;2024-01-15T12:27:31;7.77;;;4.10;;
15677;SDS011;7939;50.814;6.368;2024-01-15T12:29:58;7.67;;;4.50;;
15677;SDS011;7939;50.814;6.368;2024-01-15T12:32:25;7.07;;;4.10;;
15677;SDS011;7939;50.814;6.368;2024-01-15T12:34:53;6.80;;;3.90;;
15677;SDS011;7939;50.814;6.368;2024-01-15T12:37:20;8.20;;;3.73;;
15677;SDS011;7939;50.814;6.368;2024-01-15T12:39:47;5.77;;;3.87;;
15677;SDS011;7939;50.814;6.368;2024-01-15T12:42:14;5.17;;;4.10;;
15677;SDS011;7939;50.814;6.368;2024-01-15T12:44:42;6.27;;;3.70;;
15677;SDS011;7939;50.814;6.368;2024-01-15T12:47:09;10.77;;;5.00;;
15677;SDS011;7939;50.814;6.368;2024-01-15T12:49:36;27.57;;;12.30;;
15677;SDS011;7939;50.814;6.368;2024-01-15T12:52:04;22.57;;;8.47;;
15677;SDS011;7939;50.814;6.368;2024-01-15T12:54:34;15.67;;;9.27;;
15677;SDS011;7939;50.814;6.368;2024-01-15T12:57:01;17.47;;;8.70;;
15677;SDS011;7939;50.814;6.368;2024-01-15T12:59:27;10.97;;;6.23;;
15677;SDS011;7939;50.814;6.368;2024-01-15T13:01:54;5.83;;;4.37;;
15677;SDS011;7939;50.814;6.368;2024-01-15T13:04:21;7.13;;;3.83;;
15677;SDS011;7939;50.814;6.368;2024-01-15T13:06:49;7.33;;;3.77;;
15677;SDS011;7939;50.814;6.368;2024-01-15T13:09:17;6.70;;;3.67;;
15677;SDS011;7939;50.814;6.368;2024-01-15T13:11:44;5.87;;;3.93;;
15677;SDS011;7939;50.814;6.368;2024-01-15T13:14:11;6.10;;;3.90;;
15677;SDS011;7939;50.814;6.368;2024-01-15T13:16:38;7.93;;;3.57;;
15677;SDS011;7939;50.814;6.368;2024-01-15T13:19:06;5.60;;;4.00;;
15677;SDS011;7939;50.814;6.368;2024-01-15T13:21:34;3.60;;;3.23;;
15677;SDS011;7939;50.814;6.368;2024-01-15T13:24:03;4.45;;;3.20;;
15677;SDS011;7939;50.814;6.368;2024-01-15T13:26:32;5.03;;;3.03;;
15677;SDS011;7939;50.814;6.368;2024-01-15T13:28:59;3.45;;;2.75;;
15677;SDS011;7939;50.814;6.368;2024-01-15T13:31:26;5.23;;;3.20;;
15677;SDS011;7939;50.814;6.368;2024-01-15T13:33:53;3.33;;;2.97;;
15677;SDS011;7939;50.814;6.368;2024-01-15T13:36:20;3.00;;;2.80;;
15677;SDS011;7939;50.814;6.368;2024-01-15T13:38:48;3.87;;;2.57;;
15677;SDS011;7939;50.814;6.368;2024-01-15T13:41:15;5.20;;;2.85;;
15677;SDS011;7939;50.814;6.368;2024-01-15T13:43:45;6.97;;;3.43;;
15677;SDS011;7939;50.814;6.368;2024-01-15T13:46:12;2.87;;;2.67;;
15677;SDS011;7939;50.814;6.368;2024-01-15T13:48:38;2.57;;;2.37;;
15677;SDS011;7939;50.814;6.368;2024-01-15T13:51:05;5.07;;;3.00;;
15677;SDS011;7939;50.814;6.368;2024-01-15T13:53:31;2.97;;;2.50;;
15677;SDS011;7939;50.814;6.368;2024-01-15T13:55:58;3.80;;;2.90;;
15677;SDS011;7939;50.814;6.368;2024-01-15T13:58:25;3.23;;;2.90;;
15677;SDS011;7939;50.814;6.368;2024-01-15T14:00:53;3.60;;;2.70;;
15677;SDS011;7939;50.814;6.368;2024-01-15T14:03:20;3.13;;;2.83;;
15677;SDS011;7939;50.814;6.368;2024-01-15T14:05:46;3.40;;;3.00;;
15677;SDS011;7939;50.814;6.368;2024-01-15T14:08:13;3.07;;;2.77;;
15677;SDS011;7939;50.814;6.368;2024-01-15T14:10:40;3.27;;;2.77;;
15677;SDS011;7939;50.814;6.368;2024-01-15T14:13:07;5.20;;;3.77;;
15677;SDS011;7939;50.814;6.368;2024-01-15T14:15:33;4.00;;;3.20;;
15677;SDS011;7939;50.814;6.368;2024-01-15T14:18:02;3.90;;;3.30;;
15677;SDS011;7939;50.814;6.368;2024-01-15T14:20:29;7.60;;;4.10;;
15677;SDS011;7939;50.814;6.368;2024-01-15T14:22:56;4.50;;;4.10;;
15677;SDS011;7939;50.814;6.368;2024-01-15T14:25:23;6.43;;;3.97;;
15677;SDS011;7939;50.814;6.368;2024-01-15T14:27:50;3.83;;;3.43;;
15677;SDS011;7939;50.814;6.368;2024-01-15T14:30:16;3.73;;;3.43;;
15677;SDS011;7939;50.814;6.368;2024-01-15T14:32:44;5.40;;;3.67;;
15677;SDS011;7939;50.814;6.368;2024-01-15T14:35:12;4.83;;;4.00;;
15677;SDS011;7939;50.814;6.368;2024-01-15T14:37:39;4.00;;;3.03;;
15677;SDS011;7939;50.814;6.368;2024-01-15T14:40:06;5.43;;;3.70;;
15677;SDS011;7939;50.814;6.368;2024-01-15T14:42:33;4.00;;;3.60;;
15677;SDS011;7939;50.814;6.368;2024-01-15T14:45:01;4.27;;;3.20;;
15677;SDS011;7939;50.814;6.368;2024-01-15T14:47:30;4.13;;;2.77;;
15677;SDS011;7939;50.814;6.368;2024-01-15T14:49:58;2.90;;;2.47;;
15677;SDS011;7939;50.814;6.368;2024-01-15T14:52:26;2.80;;;2.60;;